Franzen, Wisconsin
Current Conditions -  °F | °C
As of 2:15 PM on Thursday 29 Jan 2015 (Local Time) from KAIG Reporting Station
Overcast Overcast  
Wind Chill: 14°   Ceiling: 3100
Heat Index: 27°   Visibility: 7mi
Dew Point: 19°   Wind: 21mph
Humidity: 70%   Direction: 340°NNW
Pressure: 29.98"   Gusts: 33mph
Location:  44.8179°N, 89.172°W
Report Text: KAIG 292015Z AUTO 34018G29KT 7SM OVC031 M03/M07 A2998 RMK AO2 T10261073
Loading
Personal Weather Stations






























Interactive Weather Map New forecast layout! Learn more

10-Day Weather Forecast

Advertisements
Track Severe Weather on mobile